Time,TemperatureF,DewpointF,PressureIn,WindDirection,WindDirectionDegrees,WindSpeedMPH,WindSpeedGustMPH,Humidity,HourlyPrecipIn,Conditions,Clouds,dailyrainin,SolarRadiationWatts/m^2,SoftwareType,DateUTC
2013-07-27 00:02:00,55.0,54.0,-100.00,East,96,0.0,0.0,97,-99.99,,,0.00,0.000000,,2013-07-27 04:02:00,
2013-07-27 00:43:00,54.0,53.0,-100.00,East,94,0.0,0.0,97,0.00,,,0.00,0.000000,,2013-07-27 04:43:00,
2013-07-27 00:53:00,54.0,53.0,-100.00,East,94,0.0,0.0,97,0.00,,,0.00,0.000000,,2013-07-27 04:53:00,
2013-07-27 01:02:00,54.0,53.0,-100.00,East,94,0.0,0.0,97,0.00,,,0.00,0.000000,,2013-07-27 05:02:00,
2013-07-27 01:43:00,53.0,52.0,-100.00,East,89,0.0,0.0,98,0.00,,,0.00,0.000000,,2013-07-27 05:43:00,
2013-07-27 01:52:00,53.0,52.0,-100.00,East,89,0.0,0.0,98,0.00,,,0.00,0.000000,,2013-07-27 05:52:00,
2013-07-27 02:02:00,53.0,52.0,-100.00,East,89,0.0,0.0,98,0.00,,,0.00,0.000000,,2013-07-27 06:02:00,
2013-07-27 02:33:00,54.0,53.0,-100.00,East,96,0.0,0.0,98,0.00,,,0.00,0.000000,,2013-07-27 06:33:00,
2013-07-27 02:43:00,54.0,53.0,-100.00,East,96,0.0,0.0,98,0.00,,,0.00,0.000000,,2013-07-27 06:43:00,
2013-07-27 02:52:00,54.0,53.0,-100.00,East,96,0.0,0.0,98,0.00,,,0.00,0.000000,,2013-07-27 06:52:00,
2013-07-27 03:02:00,54.0,53.0,-100.00,East,96,0.0,0.0,98,0.00,,,0.00,0.000000,,2013-07-27 07:02:00,
2013-07-27 03:34:00,53.0,52.0,-100.00,East,99,0.0,0.0,98,0.00,,,0.00,0.000000,,2013-07-27 07:34:00,
2013-07-27 03:44:00,53.0,52.0,-100.00,East,99,0.0,0.0,98,0.00,,,0.00,0.000000,,2013-07-27 07:44:00,
2013-07-27 03:53:00,53.0,52.0,-100.00,East,99,0.0,0.0,98,0.00,,,0.00,0.000000,,2013-07-27 07:53:00,
2013-07-27 04:02:00,53.0,52.0,-100.00,East,99,0.0,0.0,98,0.00,,,0.00,0.000000,,2013-07-27 08:02:00,
2013-07-27 04:32:00,53.0,52.0,-100.00,East,93,0.0,0.0,98,0.00,,,0.00,0.000000,,2013-07-27 08:32:00,
2013-07-27 04:43:00,53.0,52.0,-100.00,East,93,0.0,0.0,98,0.00,,,0.00,0.000000,,2013-07-27 08:43:00,
2013-07-27 04:53:00,53.0,52.0,-100.00,East,93,0.0,0.0,98,0.00,,,0.00,0.000000,,2013-07-27 08:53:00,
2013-07-27 05:02:00,53.0,52.0,-100.00,East,93,0.0,0.0,98,0.00,,,0.00,0.000000,,2013-07-27 09:02:00,
2013-07-27 05:44:00,52.0,52.0,-100.00,East,80,1.0,3.0,99,0.00,,,0.00,0.000000,,2013-07-27 09:44:00,
2013-07-27 05:52:00,52.0,52.0,-100.00,East,80,1.0,3.0,99,0.00,,,0.00,0.000000,,2013-07-27 09:52:00,
2013-07-27 06:02:00,52.0,52.0,-100.00,East,80,1.0,3.0,99,0.00,,,0.00,0.000000,,2013-07-27 10:02:00,
2013-07-27 06:32:00,53.0,53.0,-100.00,East,100,0.0,1.0,99,0.00,,,0.00,1.000000,,2013-07-27 10:32:00,
2013-07-27 06:44:00,53.0,53.0,-100.00,East,100,0.0,1.0,99,0.00,,,0.00,1.000000,,2013-07-27 10:44:00,
2013-07-27 06:52:00,53.0,53.0,-100.00,East,100,0.0,1.0,99,0.00,,,0.00,1.000000,,2013-07-27 10:52:00,
2013-07-27 07:02:00,53.0,53.0,-100.00,East,100,0.0,1.0,99,0.00,,,0.00,1.000000,,2013-07-27 11:02:00,
2013-07-27 07:32:00,55.0,55.0,-100.00,ESE,106,2.0,3.0,99,0.00,,,0.00,28.000000,,2013-07-27 11:32:00,
2013-07-27 07:44:00,55.0,55.0,-100.00,ESE,106,2.0,3.0,99,0.00,,,0.00,28.000000,,2013-07-27 11:44:00,
2013-07-27 07:53:00,55.0,55.0,-100.00,ESE,106,2.0,3.0,99,0.00,,,0.00,28.000000,,2013-07-27 11:53:00,
2013-07-27 08:03:00,55.0,55.0,-100.00,ESE,106,2.0,3.0,99,0.00,,,0.00,28.000000,,2013-07-27 12:03:00,
2013-07-27 08:43:00,60.0,58.0,-100.00,ESE,118,1.0,3.0,92,0.00,,,0.00,112.000000,,2013-07-27 12:43:00,
2013-07-27 08:52:00,60.0,58.0,-100.00,ESE,118,1.0,3.0,92,0.00,,,0.00,112.000000,,2013-07-27 12:52:00,
2013-07-27 09:02:00,60.0,58.0,-100.00,ESE,118,1.0,3.0,92,0.00,,,0.00,112.000000,,2013-07-27 13:02:00,
2013-07-27 09:44:00,63.0,58.0,-100.00,SE,132,3.0,5.0,84,0.00,,,0.00,189.000000,,2013-07-27 13:44:00,
2013-07-27 09:53:00,63.0,58.0,-100.00,SE,132,3.0,5.0,84,0.00,,,0.00,189.000000,,2013-07-27 13:53:00,
2013-07-27 10:02:00,63.0,58.0,-100.00,SE,132,3.0,5.0,84,0.00,,,0.00,189.000000,,2013-07-27 14:02:00,
2013-07-27 10:33:00,69.0,59.0,-100.00,SSE,148,4.0,6.0,70,0.00,,,0.00,415.000000,,2013-07-27 14:33:00,
2013-07-27 10:44:00,69.0,59.0,-100.00,SSE,148,4.0,6.0,70,0.00,,,0.00,415.000000,,2013-07-27 14:44:00,
2013-07-27 10:54:00,69.0,59.0,-100.00,SSE,148,4.0,6.0,70,0.00,,,0.00,415.000000,,2013-07-27 14:54:00,
2013-07-27 11:02:00,69.0,59.0,-100.00,SSE,148,4.0,6.0,70,0.00,,,0.00,415.000000,,2013-07-27 15:02:00,
2013-07-27 11:44:00,71.0,60.0,-100.00,South,177,4.0,6.0,69,0.00,,,0.00,325.000000,,2013-07-27 15:44:00,
2013-07-27 11:53:00,71.0,60.0,-100.00,South,177,4.0,6.0,69,0.00,,,0.00,325.000000,,2013-07-27 15:53:00,
2013-07-27 12:02:00,71.0,60.0,-100.00,South,177,4.0,6.0,69,0.00,,,0.00,325.000000,,2013-07-27 16:02:00,
2013-07-27 12:33:00,70.0,62.0,-100.00,SSE,153,3.0,6.0,76,0.00,,,0.00,326.000000,,2013-07-27 16:33:00,
2013-07-27 12:43:00,70.0,62.0,-100.00,SSE,153,3.0,6.0,76,0.00,,,0.00,326.000000,,2013-07-27 16:43:00,
2013-07-27 12:54:00,70.0,62.0,-100.00,SSE,153,3.0,6.0,76,0.00,,,0.00,326.000000,,2013-07-27 16:54:00,
2013-07-27 13:02:00,70.0,62.0,-100.00,SSE,153,3.0,6.0,76,0.00,,,0.00,326.000000,,2013-07-27 17:02:00,
2013-07-27 13:32:00,69.0,62.0,-100.00,SSE,149,4.0,9.0,79,0.00,,,0.00,344.000000,,2013-07-27 17:32:00,
2013-07-27 13:43:00,69.0,62.0,-100.00,SSE,149,4.0,9.0,79,0.00,,,0.00,344.000000,,2013-07-27 17:43:00,
2013-07-27 13:54:00,69.0,62.0,-100.00,SSE,149,4.0,9.0,79,0.00,,,0.00,344.000000,,2013-07-27 17:54:00,
2013-07-27 14:03:00,69.0,62.0,-100.00,SSE,149,4.0,9.0,79,0.00,,,0.00,344.000000,,2013-07-27 18:03:00,
2013-07-27 14:33:00,64.0,63.0,-100.00,ESE,123,3.0,6.0,95,0.12,,,0.12,144.000000,,2013-07-27 18:33:00,
2013-07-27 14:43:00,64.0,63.0,-100.00,ESE,123,3.0,6.0,95,0.12,,,0.12,144.000000,,2013-07-27 18:43:00,
2013-07-27 14:53:00,64.0,63.0,-100.00,ESE,123,3.0,6.0,95,0.12,,,0.12,144.000000,,2013-07-27 18:53:00,
2013-07-27 15:02:00,64.0,63.0,-100.00,ESE,123,3.0,6.0,95,0.12,,,0.12,144.000000,,2013-07-27 19:02:00,
2013-07-27 15:43:00,65.0,63.0,-100.00,SE,139,4.0,7.0,92,0.03,,,0.15,197.000000,,2013-07-27 19:43:00,
2013-07-27 15:53:00,65.0,63.0,-100.00,SE,139,4.0,7.0,92,0.03,,,0.15,197.000000,,2013-07-27 19:53:00,
2013-07-27 16:02:00,65.0,63.0,-100.00,SE,139,4.0,7.0,92,0.03,,,0.15,197.000000,,2013-07-27 20:02:00,
2013-07-27 16:33:00,65.0,63.0,-100.00,South,171,3.0,7.0,94,0.01,,,0.16,118.000000,,2013-07-27 20:33:00,
2013-07-27 16:43:00,65.0,63.0,-100.00,South,171,3.0,7.0,94,0.01,,,0.16,118.000000,,2013-07-27 20:43:00,
2013-07-27 16:52:00,65.0,63.0,-100.00,South,171,3.0,7.0,94,0.01,,,0.16,118.000000,,2013-07-27 20:52:00,
2013-07-27 17:03:00,65.0,63.0,-100.00,South,171,3.0,7.0,94,0.01,,,0.16,118.000000,,2013-07-27 21:03:00,
2013-07-27 17:33:00,69.0,64.0,-100.00,South,174,5.0,8.0,83,0.00,,,0.16,435.000000,,2013-07-27 21:33:00,
2013-07-27 17:43:00,69.0,64.0,-100.00,South,174,5.0,8.0,83,0.00,,,0.16,435.000000,,2013-07-27 21:43:00,
2013-07-27 17:53:00,69.0,64.0,-100.00,South,174,5.0,8.0,83,0.00,,,0.16,435.000000,,2013-07-27 21:53:00,
2013-07-27 18:02:00,69.0,64.0,-100.00,South,174,5.0,8.0,83,0.00,,,0.16,435.000000,,2013-07-27 22:02:00,
2013-07-27 18:33:00,68.0,63.0,-100.00,SSE,150,4.0,5.0,84,0.00,,,0.16,301.000000,,2013-07-27 22:33:00,
2013-07-27 18:43:00,68.0,63.0,-100.00,SSE,150,4.0,5.0,84,0.00,,,0.16,301.000000,,2013-07-27 22:43:00,
2013-07-27 18:53:00,68.0,63.0,-100.00,SSE,150,4.0,5.0,84,0.00,,,0.16,301.000000,,2013-07-27 22:53:00,
2013-07-27 19:02:00,68.0,63.0,-100.00,SSE,150,4.0,5.0,84,0.00,,,0.16,301.000000,,2013-07-27 23:02:00,
2013-07-27 19:33:00,66.0,63.0,-100.00,SSE,161,3.0,4.0,90,0.00,,,0.16,80.000000,,2013-07-27 23:33:00,
2013-07-27 19:44:00,66.0,63.0,-100.00,SSE,161,3.0,4.0,90,0.00,,,0.16,80.000000,,2013-07-27 23:44:00,
2013-07-27 19:53:00,66.0,63.0,-100.00,SSE,161,3.0,4.0,90,0.00,,,0.16,80.000000,,2013-07-27 23:53:00,
2013-07-27 20:02:00,66.0,63.0,-100.00,SSE,161,3.0,4.0,90,0.00,,,0.16,80.000000,,2013-07-28 00:02:00,
2013-07-27 20:32:00,65.0,64.0,-100.00,SE,140,3.0,5.0,96,0.02,,,0.18,35.000000,,2013-07-28 00:32:00,
2013-07-27 20:44:00,65.0,64.0,-100.00,SE,140,3.0,5.0,96,0.02,,,0.18,35.000000,,2013-07-28 00:44:00,
2013-07-27 20:53:00,65.0,64.0,-100.00,SE,140,3.0,5.0,96,0.02,,,0.18,35.000000,,2013-07-28 00:53:00,
2013-07-27 21:02:00,65.0,64.0,-100.00,SE,140,3.0,5.0,96,0.02,,,0.18,35.000000,,2013-07-28 01:02:00,
2013-07-27 21:32:00,65.0,64.0,-100.00,SSE,155,4.0,6.0,97,0.00,,,0.18,10.000000,,2013-07-28 01:32:00,
2013-07-27 21:43:00,65.0,64.0,-100.00,SSE,155,4.0,6.0,97,0.00,,,0.18,10.000000,,2013-07-28 01:43:00,
2013-07-27 21:53:00,65.0,64.0,-100.00,SSE,155,4.0,6.0,97,0.00,,,0.18,10.000000,,2013-07-28 01:53:00,
2013-07-27 22:03:00,65.0,64.0,-100.00,SSE,155,4.0,6.0,97,0.00,,,0.18,10.000000,,2013-07-28 02:03:00,
2013-07-27 22:32:00,65.0,64.0,-100.00,SE,139,4.0,7.0,97,0.00,,,0.18,0.000000,,2013-07-28 02:32:00,
2013-07-27 22:43:00,65.0,64.0,-100.00,SE,139,4.0,7.0,97,0.00,,,0.18,0.000000,,2013-07-28 02:43:00,
2013-07-27 22:53:00,65.0,64.0,-100.00,SE,139,4.0,7.0,97,0.00,,,0.18,0.000000,,2013-07-28 02:53:00,
2013-07-27 23:03:00,65.0,64.0,-100.00,SE,139,4.0,7.0,97,0.00,,,0.18,0.000000,,2013-07-28 03:03:00,
2013-07-27 23:32:00,65.0,64.0,-100.00,South,174,4.0,7.0,96,0.00,,,0.18,0.000000,,2013-07-28 03:32:00,
2013-07-27 23:43:00,65.0,64.0,-100.00,South,174,4.0,7.0,96,0.00,,,0.18,0.000000,,2013-07-28 03:43:00,
2013-07-27 23:53:00,65.0,64.0,-100.00,South,174,4.0,7.0,96,0.00,,,0.18,0.000000,,2013-07-28 03:53:00,